createdAt,value
2019-04-19T00:00:20.187Z,11.85
2019-04-19T00:01:15.848Z,11.86
2019-04-19T00:02:16.673Z,11.76
2019-04-19T00:03:05.068Z,11.73
2019-04-19T00:04:21.475Z,11.82
2019-04-19T00:05:11.132Z,11.78
2019-04-19T00:06:24.886Z,11.79
2019-04-19T00:07:26.036Z,11.78
2019-04-19T00:08:59.839Z,11.75
2019-04-19T00:10:21.373Z,11.79
2019-04-19T00:11:33.214Z,11.76
2019-04-19T00:12:46.782Z,11.79
2019-04-19T00:13:13.531Z,11.78
2019-04-19T00:14:09.167Z,11.8
2019-04-19T00:16:23.981Z,11.82
2019-04-19T00:17:28.356Z,11.82
2019-04-19T00:18:28.690Z,11.75
2019-04-19T00:20:36.245Z,11.83
2019-04-19T00:22:31.562Z,11.75
2019-04-19T00:23:44.747Z,11.75
2019-04-19T00:24:20.608Z,11.78
2019-04-19T00:26:20.862Z,11.78
2019-04-19T00:27:20.095Z,11.75
2019-04-19T00:28:47.608Z,11.75
2019-04-19T00:29:54.263Z,11.82
2019-04-19T00:31:28.247Z,11.7
2019-04-19T00:33:14.284Z,11.7
2019-04-19T00:33:59.588Z,11.73
2019-04-19T00:34:48.370Z,11.67
2019-04-19T00:35:48.169Z,11.69
2019-04-19T00:37:51.075Z,11.7
2019-04-19T00:39:39.752Z,11.6
2019-04-19T00:41:35.486Z,11.54
2019-04-19T00:43:34.023Z,11.58
2019-04-19T00:45:34.529Z,11.52
2019-04-19T00:47:37.681Z,11.49
2019-04-19T00:49:15.743Z,11.58
2019-04-19T00:50:44.067Z,11.54
2019-04-19T00:52:14.509Z,11.42
2019-04-19T00:53:55.525Z,11.47
2019-04-19T00:56:28.833Z,11.44
2019-04-19T00:57:37.104Z,11.46
2019-04-19T00:58:31.436Z,11.44
2019-04-19T00:59:19.116Z,11.43
2019-04-19T01:00:10.928Z,11.47
2019-04-19T01:01:32.432Z,11.51
2019-04-19T01:02:22.065Z,11.44
2019-04-19T01:03:11.589Z,11.52
2019-04-19T01:04:25.602Z,11.49
2019-04-19T01:05:21.411Z,11.43
2019-04-19T01:06:23.470Z,11.43
2019-04-19T01:07:22.788Z,11.47
2019-04-19T01:08:24.376Z,11.49
2019-04-19T01:10:03.147Z,11.54
2019-04-19T01:11:33.605Z,11.44
2019-04-19T01:13:07.696Z,11.39
2019-04-19T01:14:40.227Z,11.44
2019-04-19T01:16:08.652Z,11.39
2019-04-19T01:17:53.801Z,11.29
2019-04-19T01:19:03.639Z,11.24
2019-04-19T01:19:51.885Z,11.24
2019-04-19T01:20:37.691Z,11.32
2019-04-19T01:21:37.062Z,11.28
2019-04-19T01:23:07.069Z,11.39
2019-04-19T01:24:03.397Z,11.35
2019-04-19T01:24:50.056Z,11.37
2019-04-19T01:25:39.457Z,11.32
2019-04-19T01:26:52.918Z,11.27
2019-04-19T01:27:42.300Z,11.29
2019-04-19T01:28:44.377Z,11.28
2019-04-19T01:29:54.320Z,11.21
2019-04-19T01:30:48.036Z,11.24
2019-04-19T01:31:40.060Z,11.25
2019-04-19T01:32:57.574Z,11.17
2019-04-19T01:33:47.857Z,11.09
2019-04-19T01:34:39.944Z,11.14
2019-04-19T01:35:54.455Z,11.03
2019-04-19T01:36:49.645Z,11.09
2019-04-19T01:39:04.843Z,11.02
2019-04-19T01:41:02.851Z,10.94
2019-04-19T01:42:39.645Z,10.89
2019-04-19T01:44:37.877Z,10.92
2019-04-19T01:46:20.952Z,10.89
2019-04-19T01:48:20.102Z,10.97
2019-04-19T01:49:58.702Z,10.91
2019-04-19T01:51:42.073Z,11.03
2019-04-19T01:53:37.339Z,11.07
2019-04-19T01:55:16.687Z,10.94
2019-04-19T01:56:10.698Z,10.91
2019-04-19T01:57:07.715Z,10.88
2019-04-19T01:57:53.894Z,10.86
2019-04-19T01:59:05.141Z,10.89
2019-04-19T02:00:02.565Z,10.86
2019-04-19T02:01:04.335Z,10.85
2019-04-19T02:02:15.864Z,10.94
2019-04-19T02:03:06.439Z,10.82
2019-04-19T02:03:58.754Z,10.81
2019-04-19T02:05:06.759Z,10.78
2019-04-19T02:06:07.920Z,10.76
2019-04-19T02:06:56.331Z,10.74
2019-04-19T02:08:11.042Z,10.73
2019-04-19T02:09:03.505Z,10.66
2019-04-19T02:10:37.669Z,10.64
2019-04-19T02:11:53.917Z,10.64
2019-04-19T02:13:16.701Z,10.64
2019-04-19T02:14:20.509Z,10.61
2019-04-19T02:15:24.466Z,10.61
2019-04-19T02:16:10.094Z,10.6
2019-04-19T02:17:11.885Z,10.64
2019-04-19T02:17:59.516Z,10.64
2019-04-19T02:19:17.685Z,10.55
2019-04-19T02:20:12.281Z,10.53
2019-04-19T02:21:00.154Z,10.44
2019-04-19T02:22:15.973Z,10.55
2019-04-19T02:23:14.432Z,10.51
2019-04-19T02:24:07.081Z,10.48
2019-04-19T02:25:03.966Z,10.52
2019-04-19T02:26:18.792Z,10.45
2019-04-19T02:27:58.863Z,10.47
2019-04-19T02:29:24.602Z,10.48
2019-04-19T02:30:29.075Z,10.52
2019-04-19T02:35:10.988Z,10.45
2019-04-19T02:41:10.325Z,10.4
2019-04-19T02:44:15.158Z,10.38
2019-04-19T02:50:27.703Z,10.26
2019-04-19T02:54:02.097Z,10.15
2019-04-19T02:57:47.604Z,10.05
2019-04-19T03:01:10.871Z,10.12
2019-04-19T03:04:23.820Z,10.05
2019-04-19T03:06:36.401Z,9.97
2019-04-19T03:07:14.198Z,9.94
2019-04-19T03:08:06.708Z,9.93
2019-04-19T03:09:07.463Z,9.96
2019-04-19T03:10:24.462Z,9.9
2019-04-19T03:11:55.902Z,9.89
2019-04-19T03:13:52.853Z,9.93
2019-04-19T03:15:43.850Z,9.96
2019-04-19T03:17:50.433Z,9.91
2019-04-19T03:19:39.639Z,9.89
2019-04-19T03:21:24.936Z,9.93
2019-04-19T03:23:17.435Z,9.83
2019-04-19T03:25:22.668Z,9.93
2019-04-19T03:26:53.002Z,9.83
2019-04-19T03:28:15.009Z,9.86
2019-04-19T03:29:19.711Z,9.96
2019-04-19T03:33:58.402Z,9.83
2019-04-19T03:36:30.906Z,9.71
2019-04-19T03:38:29.321Z,9.72
2019-04-19T03:40:55.762Z,9.74
2019-04-19T03:43:40.936Z,9.51
2019-04-19T03:45:39.436Z,9.6
2019-04-19T03:47:56.562Z,9.56
2019-04-19T03:50:02.882Z,9.64
2019-04-19T03:52:25.766Z,9.56
2019-04-19T03:54:48.129Z,9.46
2019-04-19T03:56:54.664Z,9.47
2019-04-19T03:58:07.218Z,9.46
2019-04-19T03:58:39.981Z,9.4
2019-04-19T03:59:39.254Z,9.48
2019-04-19T04:00:40.433Z,9.46
2019-04-19T04:01:59.727Z,9.42
2019-04-19T04:03:51.418Z,9.47
2019-04-19T04:04:52.545Z,9.39
2019-04-19T04:05:52.038Z,9.51
2019-04-19T04:06:47.673Z,9.48
2019-04-19T04:07:41.551Z,9.36
2019-04-19T04:09:01.798Z,9.4
2019-04-19T04:09:57.388Z,9.51
2019-04-19T04:10:49.014Z,9.47
2019-04-19T04:12:19.451Z,9.43
2019-04-19T04:13:37.052Z,9.5
2019-04-19T04:15:10.183Z,9.51
2019-04-19T04:16:35.460Z,9.51
2019-04-19T04:17:01.993Z,9.51
2019-04-19T04:17:59.097Z,9.43
2019-04-19T04:18:59.659Z,9.38
2019-04-19T04:20:00.779Z,9.43
2019-04-19T04:21:03.873Z,9.47
2019-04-19T04:22:01.269Z,9.43
2019-04-19T04:24:32.406Z,9.47
2019-04-19T04:25:31.587Z,9.51
2019-04-19T04:26:38.998Z,9.57
2019-04-19T04:28:08.910Z,9.47
2019-04-19T04:29:32.473Z,9.51
2019-04-19T04:30:51.539Z,9.64
2019-04-19T04:32:15.473Z,9.64
2019-04-19T04:33:45.402Z,9.58
2019-04-19T04:35:19.266Z,9.65
2019-04-19T04:37:20.254Z,9.65
2019-04-19T04:38:34.362Z,9.72
2019-04-19T04:39:05.111Z,9.72
2019-04-19T04:40:04.797Z,9.72
2019-04-19T04:41:29.290Z,9.75
2019-04-19T04:42:37.363Z,9.84
2019-04-19T04:44:25.495Z,9.97
2019-04-19T04:46:56.410Z,10.47
2019-04-19T04:48:57.904Z,11.54
2019-04-19T04:51:15.287Z,12.39
2019-04-19T04:52:32.431Z,13.08
2019-04-19T04:54:08.045Z,13.64
2019-04-19T04:55:05.789Z,13.82
2019-04-19T04:56:13.884Z,14.2
2019-04-19T04:57:28.042Z,14.39
2019-04-19T04:58:28.667Z,14.68
2019-04-19T04:59:23.324Z,14.78
2019-04-19T05:00:09.964Z,14.73
2019-04-19T05:01:33.114Z,15.11
2019-04-19T05:03:03.533Z,15.47
2019-04-19T05:05:01.571Z,15.92
2019-04-19T05:06:57.631Z,16.14
2019-04-19T05:09:17.757Z,16.42
2019-04-19T05:11:19.975Z,16.38
2019-04-19T05:14:05.548Z,16.96
2019-04-19T05:16:15.727Z,17.22
2019-04-19T05:18:49.396Z,17.82
2019-04-19T05:20:50.477Z,17.58
2019-04-19T05:22:49.737Z,17.52
2019-04-19T05:25:11.339Z,17.26
2019-04-19T05:28:00.512Z,17.7
2019-04-19T05:29:33.278Z,18.18
2019-04-19T05:30:02.808Z,18.15
2019-04-19T05:31:22.451Z,18.12
2019-04-19T05:32:26.915Z,18.58
2019-04-19T05:33:36.604Z,18.91
2019-04-19T05:35:18.954Z,19.14
2019-04-19T05:37:11.378Z,19.11
2019-04-19T05:39:17.055Z,19
2019-04-19T05:41:07.837Z,18.99
2019-04-19T05:45:42.565Z,19.59
2019-04-19T05:48:00.214Z,20.28
2019-04-19T05:49:26.153Z,20.5
2019-04-19T05:51:59.348Z,20.91
2019-04-19T05:53:34.733Z,21.12
2019-04-19T05:54:19.099Z,21.14
2019-04-19T05:55:26.092Z,21.34
2019-04-19T05:56:11.668Z,21.42
2019-04-19T05:58:08.514Z,21.25
2019-04-19T05:59:29.106Z,21.06
2019-04-19T06:01:01.672Z,21.25
2019-04-19T06:04:31.036Z,21.54
2019-04-19T06:06:52.155Z,22.05
2019-04-19T06:08:20.721Z,22.07
2019-04-19T06:08:48.162Z,21.91
2019-04-19T06:09:45.746Z,21.99
2019-04-19T06:11:03.272Z,21.9
2019-04-19T06:11:51.363Z,21.86
2019-04-19T06:12:49.467Z,22
2019-04-19T06:14:38.229Z,22.06
2019-04-19T06:16:46.390Z,21.98
2019-04-19T06:18:27.833Z,21.64
2019-04-19T06:20:20.220Z,21.47
2019-04-19T06:22:09.913Z,21.31
2019-04-19T06:24:11.491Z,21.43
2019-04-19T06:26:53.243Z,21.53
2019-04-19T06:29:22.210Z,21.34
2019-04-19T06:31:45.959Z,21.1
2019-04-19T06:33:53.243Z,20.98
2019-04-19T06:35:35.983Z,21.13
2019-04-19T06:36:16.148Z,21.31
2019-04-19T06:37:25.080Z,21.31
2019-04-19T06:38:06.299Z,21.54
2019-04-19T06:39:06.232Z,21.35
2019-04-19T06:40:31.806Z,21.32
2019-04-19T06:41:26.987Z,21.25
2019-04-19T06:42:16.902Z,21.49
2019-04-19T06:43:38.429Z,21.61
2019-04-19T06:45:30.059Z,22.02
2019-04-19T06:47:02.467Z,22.36
2019-04-19T06:48:07.068Z,22.27
2019-04-19T06:49:02.952Z,22.07
2019-04-19T06:49:43.635Z,22.06
2019-04-19T06:50:53.896Z,22.15
2019-04-19T06:52:05.982Z,22.36
2019-04-19T06:52:44.690Z,22.52
2019-04-19T06:54:03.882Z,22.45
2019-04-19T06:54:47.609Z,22.64
2019-04-19T06:55:53.352Z,22.68
2019-04-19T06:57:09.028Z,22.72
2019-04-19T06:58:15.522Z,22.95
2019-04-19T06:59:19.960Z,22.98
2019-04-19T07:00:57.047Z,23.31
2019-04-19T07:01:55.612Z,23.31
2019-04-19T07:02:37.630Z,23.05
2019-04-19T07:03:37.083Z,23.02
2019-04-19T07:04:59.000Z,23.31
2019-04-19T07:06:39.277Z,23.33
2019-04-19T07:09:26.313Z,23.27
2019-04-19T07:11:54.971Z,24.5
2019-04-19T07:13:40.311Z,24.65
2019-04-19T07:14:33.533Z,24.46
2019-04-19T07:16:55.549Z,24.35
2019-04-19T07:18:45.695Z,24.43
2019-04-19T07:20:36.929Z,24.93
2019-04-19T07:24:44.101Z,24.47
2019-04-19T07:26:57.520Z,24.73
2019-04-19T07:28:17.128Z,24.22
2019-04-19T07:28:51.383Z,24.49
2019-04-19T07:29:58.409Z,24.34
2019-04-19T07:31:07.710Z,24.57
2019-04-19T07:31:51.083Z,24.45
2019-04-19T07:33:12.686Z,24.62
2019-04-19T07:34:51.791Z,25.09
2019-04-19T07:36:44.270Z,25.39
2019-04-19T07:38:53.223Z,25.85
2019-04-19T07:41:09.775Z,25.46
2019-04-19T07:43:23.448Z,25.55
2019-04-19T07:44:45.746Z,25.64
2019-04-19T07:45:39.609Z,26.07
2019-04-19T07:47:37.279Z,26.66
2019-04-19T07:49:20.829Z,26.45
2019-04-19T07:50:42.258Z,26.48
2019-04-19T07:51:37.810Z,26.29
2019-04-19T07:54:28.790Z,26.57
2019-04-19T08:00:55.824Z,26.81
2019-04-19T08:04:48.359Z,27.31
2019-04-19T08:07:59.334Z,27.39
2019-04-19T08:10:31.952Z,27.07
2019-04-19T08:12:59.240Z,27.25
2019-04-19T08:19:14.706Z,27.27
2019-04-19T08:28:27.830Z,28.64
2019-04-19T08:29:40.550Z,28.49
2019-04-19T08:30:34.580Z,27.93
2019-04-19T08:31:19.387Z,27.55
2019-04-19T08:32:15.247Z,27.65
2019-04-19T08:33:14.417Z,27.81
2019-04-19T08:35:22.118Z,28.24
2019-04-19T08:36:42.485Z,27.67
2019-04-19T08:37:42.172Z,27.46
2019-04-19T08:38:31.099Z,27.39
2019-04-19T08:40:19.818Z,27.97
2019-04-19T08:42:14.759Z,28.22
2019-04-19T08:44:13.934Z,28.37
2019-04-19T08:46:11.175Z,28.64
2019-04-19T08:46:55.975Z,28.27
2019-04-19T08:48:22.907Z,28
2019-04-19T08:49:11.823Z,28.03
2019-04-19T08:51:03.800Z,28.14
2019-04-19T08:52:12.672Z,28.15
2019-04-19T08:53:38.751Z,28.39
2019-04-19T08:55:45.977Z,28.64
2019-04-19T08:57:06.375Z,28.98
2019-04-19T08:57:39.534Z,28.78
2019-04-19T09:02:15.223Z,28.76
2019-04-19T09:04:13.441Z,28.67
2019-04-19T09:06:35.992Z,28.62
2019-04-19T09:09:23.487Z,28.66
2019-04-19T09:11:57.252Z,28.88
2019-04-19T09:14:17.115Z,29.08
2019-04-19T09:16:06.626Z,28.76
2019-04-19T09:23:51.611Z,27.72
2019-04-19T09:25:03.980Z,27.78
2019-04-19T09:26:44.430Z,27.87
2019-04-19T09:29:17.567Z,28.43
2019-04-19T09:31:21.269Z,28.36
2019-04-19T09:32:27.190Z,27.94
2019-04-19T09:33:29.327Z,28.39
2019-04-19T09:34:21.640Z,28.37
2019-04-19T09:35:14.662Z,28.14
2019-04-19T09:36:25.185Z,28.29
2019-04-19T09:37:46.324Z,28.31
2019-04-19T09:39:21.798Z,27.96
2019-04-19T09:40:30.017Z,28.09
2019-04-19T09:41:33.582Z,27.77
2019-04-19T09:42:42.026Z,27.12
2019-04-19T09:44:05.618Z,26.97
2019-04-19T09:44:58.984Z,27.31
2019-04-19T09:45:42.991Z,27.4
2019-04-19T09:46:42.856Z,27.69
2019-04-19T09:47:42.625Z,27.77
2019-04-19T09:49:28.227Z,28.06
2019-04-19T09:51:11.329Z,28.29
2019-04-19T09:53:35.450Z,28.15
2019-04-19T09:55:49.508Z,28.14
2019-04-19T09:57:55.371Z,28.37
2019-04-19T09:59:25.743Z,28.55
2019-04-19T10:00:16.405Z,28.36
2019-04-19T10:01:00.365Z,27.99
2019-04-19T10:02:15.191Z,27.67
2019-04-19T10:03:18.655Z,28.06
2019-04-19T10:04:06.457Z,27.65
2019-04-19T10:04:54.740Z,27.63
2019-04-19T10:06:53.843Z,27.74
2019-04-19T10:07:53.091Z,27.84
2019-04-19T10:08:54.305Z,27.78
2019-04-19T10:10:15.739Z,27.57
2019-04-19T10:10:54.981Z,27.62
2019-04-19T10:11:56.197Z,27.57
2019-04-19T10:12:55.887Z,27.4
2019-04-19T10:14:53.877Z,26.99
2019-04-19T10:15:54.498Z,27.07
2019-04-19T10:17:10.387Z,26.82
2019-04-19T10:17:54.713Z,26.69
2019-04-19T10:19:06.840Z,26.33
2019-04-19T10:19:53.343Z,25.92
2019-04-19T10:20:54.681Z,25.4
2019-04-19T10:21:54.418Z,25.06
2019-04-19T10:22:53.570Z,24.99
2019-04-19T10:24:57.201Z,24.77
2019-04-19T10:26:14.200Z,24.98
2019-04-19T10:26:54.924Z,25
2019-04-19T10:27:55.651Z,24.69
2019-04-19T10:28:53.684Z,24.64
2019-04-19T10:29:55.736Z,24.49
2019-04-19T10:30:54.966Z,24.42
2019-04-19T10:31:59.013Z,24.34
2019-04-19T10:32:58.626Z,24.13
2019-04-19T10:34:05.871Z,24.25
2019-04-19T10:34:55.140Z,24.22
2019-04-19T10:35:54.478Z,24.2
2019-04-19T10:37:00.297Z,24.12
2019-04-19T10:37:54.098Z,24.13
2019-04-19T10:38:59.385Z,24.27
2019-04-19T10:39:55.275Z,24.39
2019-04-19T10:40:54.062Z,24.35
2019-04-19T10:42:08.725Z,24.55
2019-04-19T10:42:54.201Z,24.67
2019-04-19T10:44:56.105Z,24.6
2019-04-19T10:45:54.810Z,24.55
2019-04-19T10:46:54.509Z,24.4
2019-04-19T10:47:54.303Z,24.58
2019-04-19T10:49:19.779Z,24.53
2019-04-19T10:50:29.058Z,24.39
2019-04-19T10:51:10.693Z,24.37
2019-04-19T10:52:05.236Z,24.42
2019-04-19T10:53:06.166Z,24.45
2019-04-19T10:54:04.926Z,24.55
2019-04-19T10:55:06.263Z,24.53
2019-04-19T10:56:05.175Z,24.37
2019-04-19T10:57:04.714Z,24.37
2019-04-19T10:58:07.274Z,24.13
2019-04-19T10:59:05.602Z,24.09
2019-04-19T11:00:07.109Z,24.31
2019-04-19T11:01:05.820Z,24.4
2019-04-19T11:02:06.490Z,24.39
2019-04-19T11:03:06.423Z,24.4
2019-04-19T11:04:05.204Z,24.32
2019-04-19T11:05:20.706Z,24.61
2019-04-19T11:06:05.641Z,24.39
2019-04-19T11:07:05.707Z,24.09
2019-04-19T11:08:06.136Z,23.97
2019-04-19T11:09:05.295Z,24.08
2019-04-19T11:11:07.439Z,24.3
2019-04-19T11:12:20.323Z,24.06
2019-04-19T11:13:05.318Z,24.08
2019-04-19T11:15:06.830Z,24.12
2019-04-19T11:16:06.686Z,24.12
2019-04-19T11:17:07.870Z,24.31
2019-04-19T11:18:07.579Z,24.4
2019-04-19T11:19:45.680Z,24.32
2019-04-19T11:20:52.720Z,23.95
2019-04-19T11:21:37.722Z,23.98
2019-04-19T11:22:37.919Z,24.28
2019-04-19T11:23:36.064Z,24.3
2019-04-19T11:24:38.900Z,24.39
2019-04-19T11:25:54.591Z,24.4
2019-04-19T11:26:37.248Z,24.43
2019-04-19T11:27:37.238Z,24.47
2019-04-19T11:28:36.778Z,24.25
2019-04-19T11:29:36.974Z,24.3
2019-04-19T11:30:37.425Z,24.05
2019-04-19T11:31:52.022Z,23.69
2019-04-19T11:32:36.106Z,23.85
2019-04-19T11:33:37.309Z,23.94
2019-04-19T11:34:37.424Z,24.16
2019-04-19T11:35:37.659Z,24.15
2019-04-19T11:36:37.567Z,24.03
2019-04-19T11:37:37.440Z,23.98
2019-04-19T11:38:36.696Z,23.88
2019-04-19T11:39:37.562Z,23.91
2019-04-19T11:40:37.666Z,24.02
2019-04-19T11:41:36.902Z,24.06
2019-04-19T11:42:37.551Z,23.9
2019-04-19T11:43:37.647Z,23.94
2019-04-19T11:44:39.450Z,23.85
2019-04-19T11:45:37.685Z,23.87
2019-04-19T11:46:52.054Z,23.84
2019-04-19T11:47:37.735Z,23.91
2019-04-19T11:48:40.022Z,23.83
2019-04-19T11:49:47.695Z,23.7
2019-04-19T11:51:36.953Z,23.51
2019-04-19T11:52:38.054Z,23.19
2019-04-19T11:53:38.477Z,23.01
2019-04-19T11:54:38.438Z,23.16
2019-04-19T11:55:38.638Z,23.28
2019-04-19T11:57:00.129Z,23.48
2019-04-19T11:57:52.699Z,23.55
2019-04-19T11:58:40.257Z,23.63
2019-04-19T11:59:53.924Z,23.84
2019-04-19T12:00:37.893Z,23.72
2019-04-19T12:01:37.435Z,23.78
2019-04-19T12:02:38.244Z,23.8
2019-04-19T12:03:42.249Z,23.78
2019-04-19T12:04:37.073Z,23.75
2019-04-19T12:05:40.343Z,23.95
2019-04-19T12:06:38.319Z,23.97
2019-04-19T12:07:37.307Z,23.93
2019-04-19T12:08:40.861Z,23.97
2019-04-19T12:09:38.500Z,24.03
2019-04-19T12:10:39.524Z,24.03
2019-04-19T12:11:38.307Z,23.68
2019-04-19T12:12:37.706Z,23.61
2019-04-19T12:13:52.489Z,23.48
2019-04-19T12:14:37.730Z,23.51
2019-04-19T12:15:40.266Z,23.54
2019-04-19T12:16:37.674Z,23.65
2019-04-19T12:17:38.200Z,23.79
2019-04-19T12:18:43.456Z,24.05
2019-04-19T12:20:02.606Z,24.06
2019-04-19T12:20:37.965Z,24.13
2019-04-19T12:21:39.408Z,23.83
2019-04-19T12:22:53.465Z,23.57
2019-04-19T12:23:37.524Z,23.72
2019-04-19T12:24:38.532Z,23.84
2019-04-19T12:25:39.283Z,23.79
2019-04-19T12:26:39.679Z,23.85
2019-04-19T12:27:39.443Z,23.88
2019-04-19T12:28:38.171Z,23.83
2019-04-19T12:30:50.370Z,23.87
2019-04-19T12:31:39.649Z,23.87
2019-04-19T12:32:39.278Z,23.98
2019-04-19T12:33:39.459Z,24.09
2019-04-19T12:34:38.070Z,24.15
2019-04-19T12:35:38.854Z,24.15
2019-04-19T12:36:39.228Z,24.25
2019-04-19T12:37:37.980Z,24.27
2019-04-19T12:38:38.306Z,24.24
2019-04-19T12:40:39.849Z,24.08
2019-04-19T12:41:53.704Z,23.84
2019-04-19T12:42:40.126Z,23.84
2019-04-19T12:43:40.203Z,23.78
2019-04-19T12:44:42.001Z,23.73
2019-04-19T12:45:55.484Z,23.69
2019-04-19T12:46:39.442Z,23.73
2019-04-19T12:47:53.145Z,23.72
2019-04-19T12:48:38.063Z,23.78
2019-04-19T12:49:59.234Z,23.8
2019-04-19T12:50:42.866Z,23.88
2019-04-19T12:51:39.738Z,23.85
2019-04-19T12:52:38.441Z,23.85
2019-04-19T12:54:39.308Z,23.84
2019-04-19T12:55:38.246Z,23.85
2019-04-19T12:56:40.142Z,23.76
2019-04-19T12:57:39.219Z,23.76
2019-04-19T12:58:53.801Z,23.75
2019-04-19T12:59:39.981Z,23.76
2019-04-19T13:00:54.321Z,23.7
2019-04-19T13:01:39.694Z,23.13
2019-04-19T13:02:38.496Z,23.01
2019-04-19T13:03:39.540Z,22.94
2019-04-19T13:04:38.689Z,22.83
2019-04-19T13:05:39.769Z,22.94
2019-04-19T13:06:39.806Z,23
2019-04-19T13:07:38.931Z,23.04
2019-04-19T13:08:39.580Z,23.05
2019-04-19T13:09:39.754Z,23.04
2019-04-19T13:10:41.121Z,23.07
2019-04-19T13:11:40.763Z,23.2
2019-04-19T13:12:39.707Z,23.32
2019-04-19T13:13:39.526Z,23.28
2019-04-19T13:14:40.024Z,23.23
2019-04-19T13:15:40.501Z,23.28
2019-04-19T13:16:40.126Z,23.32
2019-04-19T13:17:40.089Z,23.5
2019-04-19T13:18:40.227Z,23.6
2019-04-19T13:19:40.796Z,23.35
2019-04-19T13:20:43.936Z,23.27
2019-04-19T13:21:40.447Z,23.36
2019-04-19T13:22:40.488Z,23.31
2019-04-19T13:23:54.089Z,23.02
2019-04-19T13:24:40.435Z,23.04
2019-04-19T13:25:41.512Z,22.95
2019-04-19T13:26:41.290Z,23.12
2019-04-19T13:27:59.436Z,23.13
2019-04-19T13:29:41.503Z,23.05
2019-04-19T13:30:57.526Z,23.04
2019-04-19T13:31:40.751Z,22.97
2019-04-19T13:32:54.676Z,23
2019-04-19T13:33:39.334Z,23.1
2019-04-19T13:34:39.410Z,23.35
2019-04-19T13:35:41.070Z,23.32
2019-04-19T13:36:42.957Z,23.19
2019-04-19T13:37:39.155Z,23
2019-04-19T13:38:55.061Z,22.86
2019-04-19T13:40:40.620Z,22.88
2019-04-19T13:41:40.886Z,22.98
2019-04-19T13:42:41.167Z,23.01
2019-04-19T13:43:54.654Z,23.04
2019-04-19T13:44:40.783Z,23.05
2019-04-19T13:45:42.733Z,23.15
2019-04-19T13:46:40.366Z,22.98
2019-04-19T13:47:40.904Z,22.98
2019-04-19T13:48:55.032Z,22.75
2019-04-19T13:49:40.230Z,22.85
2019-04-19T13:50:48.007Z,22.95
2019-04-19T13:51:40.999Z,22.92
2019-04-19T13:52:42.136Z,22.79
2019-04-19T13:53:40.927Z,22.75
2019-04-19T13:54:41.212Z,22.77
2019-04-19T13:56:41.175Z,23.01
2019-04-19T13:57:41.729Z,22.98
2019-04-19T13:58:40.609Z,23.01
2019-04-19T14:00:03.472Z,23.25
2019-04-19T14:00:40.983Z,23.33
2019-04-19T14:01:42.743Z,23.32
2019-04-19T14:02:41.114Z,23.28
2019-04-19T14:04:55.972Z,23.38
2019-04-19T14:05:41.639Z,23.38
2019-04-19T14:06:42.259Z,23.38
2019-04-19T14:07:41.434Z,23.48
2019-04-19T14:08:42.809Z,23.4
2019-04-19T14:09:41.566Z,23.47
2019-04-19T14:10:41.623Z,23.51
2019-04-19T14:11:40.171Z,23.46
2019-04-19T14:12:42.962Z,23.43
2019-04-19T14:13:46.001Z,23.33
2019-04-19T14:14:41.506Z,23.28
2019-04-19T14:15:40.989Z,23.28
2019-04-19T14:16:55.716Z,23.19
2019-04-19T14:18:55.127Z,23
2019-04-19T14:19:42.764Z,23.02
2019-04-19T14:20:57.591Z,22.97
2019-04-19T14:21:42.652Z,23.01
2019-04-19T14:22:41.806Z,23.07
2019-04-19T14:23:41.988Z,23.1
2019-04-19T14:24:40.487Z,23.13
2019-04-19T14:25:43.154Z,23.09
2019-04-19T14:26:56.272Z,23.1
2019-04-19T14:27:41.948Z,23.1
2019-04-19T14:28:41.540Z,23.1
2019-04-19T14:29:42.002Z,23.15
2019-04-19T14:30:41.972Z,23.07
2019-04-19T14:31:42.386Z,23.05
2019-04-19T14:32:43.047Z,23.05
2019-04-19T14:33:43.131Z,23
2019-04-19T14:34:41.850Z,23.02
2019-04-19T14:35:55.549Z,23.05
2019-04-19T14:36:42.222Z,23.01
2019-04-19T14:37:41.389Z,23.12
2019-04-19T14:38:41.893Z,23
2019-04-19T14:39:42.269Z,23
2019-04-19T14:40:43.636Z,22.98
2019-04-19T14:41:41.344Z,22.95
2019-04-19T14:42:42.416Z,22.94
2019-04-19T14:43:42.645Z,22.97
2019-04-19T14:44:43.213Z,22.94
2019-04-19T14:45:42.171Z,23.02
2019-04-19T14:46:42.829Z,23.09
2019-04-19T14:47:42.385Z,23.12
2019-04-19T14:48:47.460Z,23.15
2019-04-19T14:49:56.722Z,23.17
2019-04-19T14:51:09.614Z,23.1
2019-04-19T14:52:42.493Z,23.02
2019-04-19T14:53:56.068Z,22.97
2019-04-19T14:54:42.950Z,22.94
2019-04-19T14:55:58.177Z,22.92
2019-04-19T14:56:43.358Z,22.92
2019-04-19T14:57:56.291Z,22.98
2019-04-19T14:58:41.346Z,22.98
2019-04-19T14:59:42.801Z,22.92
2019-04-19T15:00:43.008Z,23.09
2019-04-19T15:01:42.522Z,23.13
2019-04-19T15:02:44.056Z,23.2
2019-04-19T15:03:43.066Z,23.25
2019-04-19T15:04:42.855Z,23.19
2019-04-19T15:05:42.213Z,23.23
2019-04-19T15:06:42.456Z,23.1
2019-04-19T15:07:57.016Z,23.04
2019-04-19T15:08:43.402Z,23
2019-04-19T15:09:43.694Z,22.95
2019-04-19T15:10:57.669Z,23.02
2019-04-19T15:11:41.948Z,23.02
2019-04-19T15:13:42.907Z,22.94
2019-04-19T15:14:57.553Z,22.92
2019-04-19T15:16:45.464Z,22.76
2019-04-19T15:17:57.576Z,22.77
2019-04-19T15:18:42.882Z,22.76
2019-04-19T15:19:42.314Z,22.79
2019-04-19T15:21:04.131Z,22.8
2019-04-19T15:21:43.918Z,22.79
2019-04-19T15:22:44.315Z,22.79
2019-04-19T15:23:56.956Z,22.91
2019-04-19T15:24:44.515Z,22.8
2019-04-19T15:25:42.857Z,22.72
2019-04-19T15:27:44.286Z,22.77
2019-04-19T15:28:43.019Z,22.76
2019-04-19T15:29:56.917Z,22.67
2019-04-19T15:30:46.160Z,22.68
2019-04-19T15:31:58.097Z,22.57
2019-04-19T15:32:44.357Z,22.58
2019-04-19T15:33:44.751Z,22.58
2019-04-19T15:34:43.446Z,22.51
2019-04-19T15:35:42.097Z,22.58
2019-04-19T15:36:43.618Z,22.72
2019-04-19T15:37:43.508Z,22.62
2019-04-19T15:38:42.317Z,22.67
2019-04-19T15:39:58.209Z,22.64
2019-04-19T15:41:58.085Z,22.65
2019-04-19T15:43:43.196Z,22.58
2019-04-19T15:44:42.944Z,22.49
2019-04-19T15:45:59.014Z,22.4
2019-04-19T15:46:43.893Z,22.37
2019-04-19T15:47:44.908Z,22.3
2019-04-19T15:48:56.692Z,22.4
2019-04-19T15:49:42.857Z,22.42
2019-04-19T15:50:43.117Z,22.46
2019-04-19T15:51:47.859Z,22.47
2019-04-19T15:52:44.020Z,22.28
2019-04-19T15:53:44.157Z,22.28
2019-04-19T15:54:44.276Z,22.33
2019-04-19T15:55:58.268Z,22.27
2019-04-19T15:56:44.467Z,22.25
2019-04-19T15:57:44.296Z,22.25
2019-04-19T15:58:58.829Z,22.14
2019-04-19T15:59:43.605Z,22.12
2019-04-19T16:00:43.984Z,22.24
2019-04-19T16:01:44.311Z,22.25
2019-04-19T16:02:43.962Z,22.27
2019-04-19T16:03:43.926Z,22.17
2019-04-19T16:04:44.278Z,22.1
2019-04-19T16:06:43.823Z,22.14
2019-04-19T16:08:59.100Z,22.15
2019-04-19T16:09:45.186Z,22.02
2019-04-19T16:10:58.393Z,22.02
2019-04-19T16:11:48.916Z,22
2019-04-19T16:12:44.576Z,21.98
2019-04-19T16:13:44.249Z,22
2019-04-19T16:14:59.815Z,22.09
2019-04-19T16:15:44.744Z,22.05
2019-04-19T16:16:58.956Z,22
2019-04-19T16:17:45.745Z,22
2019-04-19T16:18:44.566Z,22.02
2019-04-19T16:19:47.683Z,21.92
2019-04-19T16:20:49.611Z,21.9
2019-04-19T16:22:04.210Z,21.9
2019-04-19T16:22:58.338Z,21.88
2019-04-19T16:23:43.454Z,21.86
2019-04-19T16:24:45.079Z,21.79
2019-04-19T16:25:59.538Z,21.88
2019-04-19T16:26:44.778Z,21.82
2019-04-19T16:28:44.396Z,21.88
2019-04-19T16:29:59.836Z,21.84
2019-04-19T16:30:44.530Z,21.88
2019-04-19T16:31:45.148Z,21.82
2019-04-19T16:32:43.880Z,21.71
2019-04-19T16:33:46.438Z,21.67
2019-04-19T16:34:43.716Z,21.61
2019-04-19T16:35:45.132Z,21.64
2019-04-19T16:37:45.249Z,21.47
2019-04-19T16:38:46.630Z,21.5
2019-04-19T16:39:46.054Z,21.42
2019-04-19T16:40:46.301Z,21.31
2019-04-19T16:41:45.375Z,21.27
2019-04-19T16:42:59.724Z,21.28
2019-04-19T16:43:44.469Z,21.22
2019-04-19T16:44:44.024Z,21.16
2019-04-19T16:45:44.644Z,21.19
2019-04-19T16:46:45.262Z,21.19
2019-04-19T16:47:45.076Z,21.1
2019-04-19T16:48:46.208Z,21.03
2019-04-19T16:49:46.523Z,21.04
2019-04-19T16:50:46.221Z,20.97
2019-04-19T16:51:59.253Z,20.98
2019-04-19T16:52:46.909Z,20.89
2019-04-19T16:53:46.020Z,20.82
2019-04-19T16:54:46.425Z,20.94
2019-04-19T16:55:45.521Z,20.77
2019-04-19T16:56:45.784Z,20.77
2019-04-19T16:57:45.452Z,20.72
2019-04-19T16:59:03.337Z,20.72
2019-04-19T16:59:45.869Z,20.72
2019-04-19T17:00:46.990Z,20.74
2019-04-19T17:01:46.529Z,20.72
2019-04-19T17:02:46.676Z,20.67
2019-04-19T17:04:45.692Z,20.62
2019-04-19T17:05:44.795Z,20.58
2019-04-19T17:06:46.709Z,20.51
2019-04-19T17:07:59.546Z,20.43
2019-04-19T17:08:46.618Z,20.41
2019-04-19T17:09:45.552Z,20.42